sensor_id;sensor_type;location;lat;lon;timestamp;temperature;humidity
19536;HTU21D;9913;51.168;4.124;2023-02-13T00:01:19;8.04;70.07
19536;HTU21D;9913;51.168;4.124;2023-02-13T00:03:47;8.01;70.12
19536;HTU21D;9913;51.168;4.124;2023-02-13T00:06:16;7.92;69.99
19536;HTU21D;9913;51.168;4.124;2023-02-13T00:08:44;7.92;70.07
19536;HTU21D;9913;51.168;4.124;2023-02-13T00:11:14;7.93;70.08
19536;HTU21D;9913;51.168;4.124;2023-02-13T00:13:42;7.85;70.00
19536;HTU21D;9913;51.168;4.124;2023-02-13T00:16:11;7.82;69.83
19536;HTU21D;9913;51.168;4.124;2023-02-13T00:18:39;7.78;69.98
19536;HTU21D;9913;51.168;4.124;2023-02-13T00:21:09;7.78;69.94
19536;HTU21D;9913;51.168;4.124;2023-02-13T00:23:38;7.73;69.97
19536;HTU21D;9913;51.168;4.124;2023-02-13T00:26:09;7.67;69.85
19536;HTU21D;9913;51.168;4.124;2023-02-13T00:28:44;7.63;70.07
19536;HTU21D;9913;51.168;4.124;2023-02-13T00:31:14;7.60;70.07
19536;HTU21D;9913;51.168;4.124;2023-02-13T00:33:43;7.46;69.86
19536;HTU21D;9913;51.168;4.124;2023-02-13T00:36:12;7.34;69.77
19536;HTU21D;9913;51.168;4.124;2023-02-13T00:38:42;7.29;69.80
19536;HTU21D;9913;51.168;4.124;2023-02-13T00:41:11;7.15;69.65
19536;HTU21D;9913;51.168;4.124;2023-02-13T00:43:40;7.03;69.73
19536;HTU21D;9913;51.168;4.124;2023-02-13T00:46:09;6.96;69.80
19536;HTU21D;9913;51.168;4.124;2023-02-13T00:48:38;6.90;69.81
19536;HTU21D;9913;51.168;4.124;2023-02-13T00:51:07;6.80;69.85
19536;HTU21D;9913;51.168;4.124;2023-02-13T00:53:36;6.71;69.73
19536;HTU21D;9913;51.168;4.124;2023-02-13T00:56:05;6.65;69.74
19536;HTU21D;9913;51.168;4.124;2023-02-13T00:58:36;6.56;69.82
19536;HTU21D;9913;51.168;4.124;2023-02-13T01:01:05;6.40;69.73
19536;HTU21D;9913;51.168;4.124;2023-02-13T01:03:35;6.34;69.68
19536;HTU21D;9913;51.168;4.124;2023-02-13T01:06:04;6.23;69.76
19536;HTU21D;9913;51.168;4.124;2023-02-13T01:08:33;6.13;69.78
19536;HTU21D;9913;51.168;4.124;2023-02-13T01:11:01;6.06;69.76
19536;HTU21D;9913;51.168;4.124;2023-02-13T01:13:29;6.08;69.85
19536;HTU21D;9913;51.168;4.124;2023-02-13T01:15:57;6.09;69.87
19536;HTU21D;9913;51.168;4.124;2023-02-13T01:18:26;6.05;69.84
19536;HTU21D;9913;51.168;4.124;2023-02-13T01:20:57;5.97;69.78
19536;HTU21D;9913;51.168;4.124;2023-02-13T01:23:29;5.91;69.83
19536;HTU21D;9913;51.168;4.124;2023-02-13T01:25:58;5.96;69.84
19536;HTU21D;9913;51.168;4.124;2023-02-13T01:28:26;5.96;69.77
19536;HTU21D;9913;51.168;4.124;2023-02-13T01:30:56;5.90;69.83
19536;HTU21D;9913;51.168;4.124;2023-02-13T01:33:27;5.91;69.81
19536;HTU21D;9913;51.168;4.124;2023-02-13T01:35:57;5.92;69.81
19536;HTU21D;9913;51.168;4.124;2023-02-13T01:38:26;5.89;69.72
19536;HTU21D;9913;51.168;4.124;2023-02-13T01:40:55;5.87;69.78
19536;HTU21D;9913;51.168;4.124;2023-02-13T01:43:40;5.82;69.71
19536;HTU21D;9913;51.168;4.124;2023-02-13T01:46:10;5.82;69.81
19536;HTU21D;9913;51.168;4.124;2023-02-13T01:48:39;5.82;69.83
19536;HTU21D;9913;51.168;4.124;2023-02-13T01:51:12;5.83;69.74
19536;HTU21D;9913;51.168;4.124;2023-02-13T01:53:43;5.82;69.71
19536;HTU21D;9913;51.168;4.124;2023-02-13T01:56:18;5.78;69.69
19536;HTU21D;9913;51.168;4.124;2023-02-13T01:58:51;5.76;69.69
19536;HTU21D;9913;51.168;4.124;2023-02-13T02:01:22;5.75;69.83
19536;HTU21D;9913;51.168;4.124;2023-02-13T02:03:55;5.72;69.71
19536;HTU21D;9913;51.168;4.124;2023-02-13T02:06:33;5.69;69.78
19536;HTU21D;9913;51.168;4.124;2023-02-13T02:09:06;5.62;69.76
19536;HTU21D;9913;51.168;4.124;2023-02-13T02:11:41;5.65;69.83
19536;HTU21D;9913;51.168;4.124;2023-02-13T02:14:13;5.62;69.94
19536;HTU21D;9913;51.168;4.124;2023-02-13T02:16:42;5.55;69.85
19536;HTU21D;9913;51.168;4.124;2023-02-13T02:19:14;5.53;69.97
19536;HTU21D;9913;51.168;4.124;2023-02-13T02:21:59;5.49;69.92
19536;HTU21D;9913;51.168;4.124;2023-02-13T02:24:49;5.48;70.06
19536;HTU21D;9913;51.168;4.124;2023-02-13T02:33:47;5.42;70.13
19536;HTU21D;9913;51.168;4.124;2023-02-13T02:36:27;5.41;70.23
19536;HTU21D;9913;51.168;4.124;2023-02-13T02:39:05;5.39;70.25
19536;HTU21D;9913;51.168;4.124;2023-02-13T02:41:50;5.42;70.32
19536;HTU21D;9913;51.168;4.124;2023-02-13T02:44:33;5.38;70.28
19536;HTU21D;9913;51.168;4.124;2023-02-13T02:47:09;5.37;70.28
19536;HTU21D;9913;51.168;4.124;2023-02-13T02:50:11;5.33;70.25
19536;HTU21D;9913;51.168;4.124;2023-02-13T02:52:47;5.32;70.38
19536;HTU21D;9913;51.168;4.124;2023-02-13T02:55:30;5.31;70.48
19536;HTU21D;9913;51.168;4.124;2023-02-13T02:58:05;5.23;70.29
19536;HTU21D;9913;51.168;4.124;2023-02-13T03:00:57;5.23;70.46
19536;HTU21D;9913;51.168;4.124;2023-02-13T03:03:45;5.21;70.49
19536;HTU21D;9913;51.168;4.124;2023-02-13T03:06:39;5.18;70.64
19536;HTU21D;9913;51.168;4.124;2023-02-13T03:09:13;5.16;70.64
19536;HTU21D;9913;51.168;4.124;2023-02-13T03:12:00;5.08;70.68
19536;HTU21D;9913;51.168;4.124;2023-02-13T03:14:46;5.05;70.84
19536;HTU21D;9913;51.168;4.124;2023-02-13T03:17:16;5.06;70.84
19536;HTU21D;9913;51.168;4.124;2023-02-13T03:20:11;5.01;70.85
19536;HTU21D;9913;51.168;4.124;2023-02-13T03:23:10;4.92;70.82
19536;HTU21D;9913;51.168;4.124;2023-02-13T03:28:53;4.89;71.03
19536;HTU21D;9913;51.168;4.124;2023-02-13T03:31:49;4.84;70.87
19536;HTU21D;9913;51.168;4.124;2023-02-13T03:34:31;4.82;70.99
19536;HTU21D;9913;51.168;4.124;2023-02-13T03:37:25;4.79;71.16
19536;HTU21D;9913;51.168;4.124;2023-02-13T03:40:16;4.73;71.15
19536;HTU21D;9913;51.168;4.124;2023-02-13T03:42:52;4.71;71.32
19536;HTU21D;9913;51.168;4.124;2023-02-13T03:45:29;4.68;71.48
19536;HTU21D;9913;51.168;4.124;2023-02-13T03:48:19;4.63;71.56
19536;HTU21D;9913;51.168;4.124;2023-02-13T03:51:07;4.66;71.84
19536;HTU21D;9913;51.168;4.124;2023-02-13T03:53:38;4.63;71.93
19536;HTU21D;9913;51.168;4.124;2023-02-13T03:56:10;4.63;72.02
19536;HTU21D;9913;51.168;4.124;2023-02-13T03:58:58;4.63;72.27
19536;HTU21D;9913;51.168;4.124;2023-02-13T04:01:54;4.59;72.32
19536;HTU21D;9913;51.168;4.124;2023-02-13T04:04:29;4.60;72.49
19536;HTU21D;9913;51.168;4.124;2023-02-13T04:07:01;4.56;72.37
19536;HTU21D;9913;51.168;4.124;2023-02-13T04:09:32;4.53;72.28
19536;HTU21D;9913;51.168;4.124;2023-02-13T04:12:08;4.50;72.46
19536;HTU21D;9913;51.168;4.124;2023-02-13T04:14:44;4.52;72.72
19536;HTU21D;9913;51.168;4.124;2023-02-13T04:17:18;4.52;72.78
19536;HTU21D;9913;51.168;4.124;2023-02-13T04:19:48;4.48;72.66
19536;HTU21D;9913;51.168;4.124;2023-02-13T04:22:17;4.43;72.53
19536;HTU21D;9913;51.168;4.124;2023-02-13T04:24:46;4.42;72.65
19536;HTU21D;9913;51.168;4.124;2023-02-13T04:27:16;4.41;72.52
19536;HTU21D;9913;51.168;4.124;2023-02-13T04:29:44;4.35;72.46
19536;HTU21D;9913;51.168;4.124;2023-02-13T04:32:13;4.30;72.61
19536;HTU21D;9913;51.168;4.124;2023-02-13T04:34:43;4.27;72.66
19536;HTU21D;9913;51.168;4.124;2023-02-13T04:37:11;4.29;72.51
19536;HTU21D;9913;51.168;4.124;2023-02-13T04:39:40;4.19;72.35
19536;HTU21D;9913;51.168;4.124;2023-02-13T04:42:08;4.19;72.34
19536;HTU21D;9913;51.168;4.124;2023-02-13T04:44:37;4.18;72.61
19536;HTU21D;9913;51.168;4.124;2023-02-13T04:47:06;4.19;72.88
19536;HTU21D;9913;51.168;4.124;2023-02-13T04:49:34;4.19;72.65
19536;HTU21D;9913;51.168;4.124;2023-02-13T04:52:02;4.19;72.43
19536;HTU21D;9913;51.168;4.124;2023-02-13T04:54:31;4.18;72.69
19536;HTU21D;9913;51.168;4.124;2023-02-13T04:56:59;4.12;72.74
19536;HTU21D;9913;51.168;4.124;2023-02-13T04:59:27;4.07;72.60
19536;HTU21D;9913;51.168;4.124;2023-02-13T05:01:57;4.06;72.48
19536;HTU21D;9913;51.168;4.124;2023-02-13T05:04:26;4.07;72.47
19536;HTU21D;9913;51.168;4.124;2023-02-13T05:06:54;4.02;72.58
19536;HTU21D;9913;51.168;4.124;2023-02-13T05:09:23;3.97;72.48
19536;HTU21D;9913;51.168;4.124;2023-02-13T05:11:52;3.92;72.60
19536;HTU21D;9913;51.168;4.124;2023-02-13T05:14:20;3.85;72.51
19536;HTU21D;9913;51.168;4.124;2023-02-13T05:16:49;3.89;72.73
19536;HTU21D;9913;51.168;4.124;2023-02-13T05:19:18;3.90;73.22
19536;HTU21D;9913;51.168;4.124;2023-02-13T05:21:47;3.89;73.06
19536;HTU21D;9913;51.168;4.124;2023-02-13T05:24:32;3.87;73.36
19536;HTU21D;9913;51.168;4.124;2023-02-13T05:27:01;3.89;73.51
19536;HTU21D;9913;51.168;4.124;2023-02-13T05:29:29;3.88;73.67
19536;HTU21D;9913;51.168;4.124;2023-02-13T05:31:58;3.92;73.93
19536;HTU21D;9913;51.168;4.124;2023-02-13T05:34:28;3.94;73.91
19536;HTU21D;9913;51.168;4.124;2023-02-13T05:36:56;3.91;74.43
19536;HTU21D;9913;51.168;4.124;2023-02-13T05:39:25;3.88;74.57
19536;HTU21D;9913;51.168;4.124;2023-02-13T05:41:53;3.89;74.44
19536;HTU21D;9913;51.168;4.124;2023-02-13T05:44:21;3.83;74.15
19536;HTU21D;9913;51.168;4.124;2023-02-13T05:46:49;3.83;74.25
19536;HTU21D;9913;51.168;4.124;2023-02-13T05:49:19;3.77;75.09
19536;HTU21D;9913;51.168;4.124;2023-02-13T05:51:50;3.70;75.00
19536;HTU21D;9913;51.168;4.124;2023-02-13T05:54:19;3.69;75.18
19536;HTU21D;9913;51.168;4.124;2023-02-13T05:56:47;3.64;75.38
19536;HTU21D;9913;51.168;4.124;2023-02-13T05:59:15;3.64;75.28
19536;HTU21D;9913;51.168;4.124;2023-02-13T06:01:43;3.59;74.92
19536;HTU21D;9913;51.168;4.124;2023-02-13T06:04:12;3.52;74.86
19536;HTU21D;9913;51.168;4.124;2023-02-13T06:06:40;3.56;75.21
19536;HTU21D;9913;51.168;4.124;2023-02-13T06:09:10;3.58;76.41
19536;HTU21D;9913;51.168;4.124;2023-02-13T06:11:38;3.60;77.00
19536;HTU21D;9913;51.168;4.124;2023-02-13T06:14:06;3.60;77.24
19536;HTU21D;9913;51.168;4.124;2023-02-13T06:16:35;3.52;77.86
19536;HTU21D;9913;51.168;4.124;2023-02-13T06:19:03;3.60;78.11
19536;HTU21D;9913;51.168;4.124;2023-02-13T06:21:32;3.62;77.79
19536;HTU21D;9913;51.168;4.124;2023-02-13T06:24:04;3.53;77.45
19536;HTU21D;9913;51.168;4.124;2023-02-13T06:26:34;3.48;77.47
19536;HTU21D;9913;51.168;4.124;2023-02-13T06:29:02;3.48;77.17
19536;HTU21D;9913;51.168;4.124;2023-02-13T06:31:32;3.47;76.96
19536;HTU21D;9913;51.168;4.124;2023-02-13T06:34:01;3.47;76.73
19536;HTU21D;9913;51.168;4.124;2023-02-13T06:36:29;3.36;76.38
19536;HTU21D;9913;51.168;4.124;2023-02-13T06:38:57;3.32;76.37
19536;HTU21D;9913;51.168;4.124;2023-02-13T06:41:25;3.25;76.50
19536;HTU21D;9913;51.168;4.124;2023-02-13T06:43:55;3.23;76.41
19536;HTU21D;9913;51.168;4.124;2023-02-13T06:46:23;3.26;76.34
19536;HTU21D;9913;51.168;4.124;2023-02-13T06:48:52;3.28;76.18
19536;HTU21D;9913;51.168;4.124;2023-02-13T06:51:21;3.23;75.94
19536;HTU21D;9913;51.168;4.124;2023-02-13T06:53:49;3.32;75.79
19536;HTU21D;9913;51.168;4.124;2023-02-13T06:56:17;3.26;75.63
19536;HTU21D;9913;51.168;4.124;2023-02-13T06:58:49;3.18;75.28
19536;HTU21D;9913;51.168;4.124;2023-02-13T07:01:18;3.12;75.31
19536;HTU21D;9913;51.168;4.124;2023-02-13T07:03:47;3.02;75.51
19536;HTU21D;9913;51.168;4.124;2023-02-13T07:06:18;2.94;75.66
19536;HTU21D;9913;51.168;4.124;2023-02-13T07:08:46;2.94;75.63
19536;HTU21D;9913;51.168;4.124;2023-02-13T07:11:17;2.93;75.64
19536;HTU21D;9913;51.168;4.124;2023-02-13T07:13:46;2.91;75.60
19536;HTU21D;9913;51.168;4.124;2023-02-13T07:16:15;2.86;75.64
19536;HTU21D;9913;51.168;4.124;2023-02-13T07:18:44;2.91;75.57
19536;HTU21D;9913;51.168;4.124;2023-02-13T07:21:13;2.82;75.26
19536;HTU21D;9913;51.168;4.124;2023-02-13T07:23:41;2.87;75.10
19536;HTU21D;9913;51.168;4.124;2023-02-13T07:26:09;2.74;74.66
19536;HTU21D;9913;51.168;4.124;2023-02-13T07:28:38;2.76;74.52
19536;HTU21D;9913;51.168;4.124;2023-02-13T07:31:06;2.73;74.54
19536;HTU21D;9913;51.168;4.124;2023-02-13T07:33:35;2.75;74.54
19536;HTU21D;9913;51.168;4.124;2023-02-13T07:36:06;2.79;74.36
19536;HTU21D;9913;51.168;4.124;2023-02-13T07:38:34;2.81;74.24
19536;HTU21D;9913;51.168;4.124;2023-02-13T07:41:03;2.87;73.90
19536;HTU21D;9913;51.168;4.124;2023-02-13T07:43:31;2.84;73.61
19536;HTU21D;9913;51.168;4.124;2023-02-13T07:46:01;2.78;73.31
19536;HTU21D;9913;51.168;4.124;2023-02-13T07:48:32;2.84;73.33
19536;HTU21D;9913;51.168;4.124;2023-02-13T07:51:02;2.86;73.14
19536;HTU21D;9913;51.168;4.124;2023-02-13T07:53:32;2.78;72.84
19536;HTU21D;9913;51.168;4.124;2023-02-13T07:56:04;2.72;72.71
19536;HTU21D;9913;51.168;4.124;2023-02-13T07:58:32;2.72;72.70
19536;HTU21D;9913;51.168;4.124;2023-02-13T08:01:05;2.72;72.74
19536;HTU21D;9913;51.168;4.124;2023-02-13T08:03:33;2.72;72.62
19536;HTU21D;9913;51.168;4.124;2023-02-13T08:06:02;2.64;72.58
19536;HTU21D;9913;51.168;4.124;2023-02-13T08:08:32;2.61;72.70
19536;HTU21D;9913;51.168;4.124;2023-02-13T08:11:05;2.59;72.63
19536;HTU21D;9913;51.168;4.124;2023-02-13T08:13:51;2.62;72.54
19536;HTU21D;9913;51.168;4.124;2023-02-13T08:16:20;2.68;72.40
19536;HTU21D;9913;51.168;4.124;2023-02-13T08:18:48;2.71;72.16
19536;HTU21D;9913;51.168;4.124;2023-02-13T08:21:16;2.78;71.95
19536;HTU21D;9913;51.168;4.124;2023-02-13T08:23:46;2.84;71.75
19536;HTU21D;9913;51.168;4.124;2023-02-13T08:26:14;2.91;71.60
19536;HTU21D;9913;51.168;4.124;2023-02-13T08:28:43;2.98;71.30
19536;HTU21D;9913;51.168;4.124;2023-02-13T08:31:11;3.06;71.32
19536;HTU21D;9913;51.168;4.124;2023-02-13T08:33:40;3.14;71.10
19536;HTU21D;9913;51.168;4.124;2023-02-13T08:36:08;3.28;71.01
19536;HTU21D;9913;51.168;4.124;2023-02-13T08:38:37;3.34;70.72
19536;HTU21D;9913;51.168;4.124;2023-02-13T08:41:07;3.54;70.61
19536;HTU21D;9913;51.168;4.124;2023-02-13T08:43:36;3.63;70.37
19536;HTU21D;9913;51.168;4.124;2023-02-13T08:46:05;3.76;70.08
19536;HTU21D;9913;51.168;4.124;2023-02-13T08:48:33;3.88;70.00
19536;HTU21D;9913;51.168;4.124;2023-02-13T08:51:04;3.99;69.87
19536;HTU21D;9913;51.168;4.124;2023-02-13T08:53:33;4.06;69.69
19536;HTU21D;9913;51.168;4.124;2023-02-13T08:56:02;4.08;69.44
19536;HTU21D;9913;51.168;4.124;2023-02-13T08:58:32;4.19;69.35
19536;HTU21D;9913;51.168;4.124;2023-02-13T09:01:04;4.26;69.26
19536;HTU21D;9913;51.168;4.124;2023-02-13T09:03:33;4.36;69.13
19536;HTU21D;9913;51.168;4.124;2023-02-13T09:06:02;4.47;68.97
19536;HTU21D;9913;51.168;4.124;2023-02-13T09:08:30;4.47;68.92
19536;HTU21D;9913;51.168;4.124;2023-02-13T09:11:00;4.62;68.94
19536;HTU21D;9913;51.168;4.124;2023-02-13T09:13:29;4.80;68.78
19536;HTU21D;9913;51.168;4.124;2023-02-13T09:16:01;4.87;68.67
19536;HTU21D;9913;51.168;4.124;2023-02-13T09:18:32;5.01;68.56
19536;HTU21D;9913;51.168;4.124;2023-02-13T09:21:03;5.21;68.37
19536;HTU21D;9913;51.168;4.124;2023-02-13T09:23:33;5.42;68.35
19536;HTU21D;9913;51.168;4.124;2023-02-13T09:26:02;5.54;68.19
19536;HTU21D;9913;51.168;4.124;2023-02-13T09:28:32;5.75;67.92
19536;HTU21D;9913;51.168;4.124;2023-02-13T09:31:06;5.75;68.33
19536;HTU21D;9913;51.168;4.124;2023-02-13T09:33:35;5.66;68.08
19536;HTU21D;9913;51.168;4.124;2023-02-13T09:36:04;6.04;67.78
19536;HTU21D;9913;51.168;4.124;2023-02-13T09:38:33;6.23;68.02
19536;HTU21D;9913;51.168;4.124;2023-02-13T09:41:03;6.36;67.95
19536;HTU21D;9913;51.168;4.124;2023-02-13T09:43:35;6.41;68.09
19536;HTU21D;9913;51.168;4.124;2023-02-13T09:46:10;6.56;68.14
19536;HTU21D;9913;51.168;4.124;2023-02-13T09:48:41;6.63;68.12
19536;HTU21D;9913;51.168;4.124;2023-02-13T09:51:15;6.79;67.72
19536;HTU21D;9913;51.168;4.124;2023-02-13T09:53:50;6.97;68.25
19536;HTU21D;9913;51.168;4.124;2023-02-13T09:56:22;6.97;68.10
19536;HTU21D;9913;51.168;4.124;2023-02-13T09:58:57;7.27;68.55
19536;HTU21D;9913;51.168;4.124;2023-02-13T10:01:31;7.38;68.13
19536;HTU21D;9913;51.168;4.124;2023-02-13T10:04:22;7.48;68.17
19536;HTU21D;9913;51.168;4.124;2023-02-13T10:06:57;7.64;68.22
19536;HTU21D;9913;51.168;4.124;2023-02-13T10:09:32;7.69;68.38
19536;HTU21D;9913;51.168;4.124;2023-02-13T10:12:19;7.99;68.75
19536;HTU21D;9913;51.168;4.124;2023-02-13T10:14:57;8.03;68.57
19536;HTU21D;9913;51.168;4.124;2023-02-13T10:17:35;8.34;68.80
19536;HTU21D;9913;51.168;4.124;2023-02-13T10:20:11;8.55;69.68
19536;HTU21D;9913;51.168;4.124;2023-02-13T10:22:48;8.60;69.54
19536;HTU21D;9913;51.168;4.124;2023-02-13T10:25:22;8.79;69.30
19536;HTU21D;9913;51.168;4.124;2023-02-13T10:27:54;8.93;69.63
19536;HTU21D;9913;51.168;4.124;2023-02-13T10:30:28;8.93;69.55
19536;HTU21D;9913;51.168;4.124;2023-02-13T10:33:03;9.11;69.10
19536;HTU21D;9913;51.168;4.124;2023-02-13T10:35:52;9.16;69.39
19536;HTU21D;9913;51.168;4.124;2023-02-13T10:38:22;9.42;69.94
19536;HTU21D;9913;51.168;4.124;2023-02-13T10:41:24;9.42;69.44
19536;HTU21D;9913;51.168;4.124;2023-02-13T10:44:17;9.46;69.90
19536;HTU21D;9913;51.168;4.124;2023-02-13T10:46:56;9.60;71.02
19536;HTU21D;9913;51.168;4.124;2023-02-13T10:49:40;9.55;71.29
19536;HTU21D;9913;51.168;4.124;2023-02-13T10:52:19;9.57;70.68
19536;HTU21D;9913;51.168;4.124;2023-02-13T10:54:59;9.55;70.94
19536;HTU21D;9913;51.168;4.124;2023-02-13T10:57:38;9.61;71.22
19536;HTU21D;9913;51.168;4.124;2023-02-13T11:00:12;9.66;71.76
19536;HTU21D;9913;51.168;4.124;2023-02-13T11:02:44;9.68;69.87
19536;HTU21D;9913;51.168;4.124;2023-02-13T11:05:16;9.78;71.00
19536;HTU21D;9913;51.168;4.124;2023-02-13T11:07:46;9.92;71.46
19536;HTU21D;9913;51.168;4.124;2023-02-13T11:10:16;9.83;71.77
19536;HTU21D;9913;51.168;4.124;2023-02-13T11:12:45;9.90;71.38
19536;HTU21D;9913;51.168;4.124;2023-02-13T11:15:23;10.05;72.19
19536;HTU21D;9913;51.168;4.124;2023-02-13T11:17:54;10.21;71.47
19536;HTU21D;9913;51.168;4.124;2023-02-13T11:20:42;10.16;71.93
19536;HTU21D;9913;51.168;4.124;2023-02-13T11:23:27;10.14;71.59
19536;HTU21D;9913;51.168;4.124;2023-02-13T11:26:02;10.28;70.77
19536;HTU21D;9913;51.168;4.124;2023-02-13T11:28:33;10.34;71.25
19536;HTU21D;9913;51.168;4.124;2023-02-13T11:31:20;10.24;71.95
19536;HTU21D;9913;51.168;4.124;2023-02-13T11:33:49;10.27;72.16
19536;HTU21D;9913;51.168;4.124;2023-02-13T11:36:24;10.31;72.05
19536;HTU21D;9913;51.168;4.124;2023-02-13T11:38:58;10.28;72.44
19536;HTU21D;9913;51.168;4.124;2023-02-13T11:41:28;10.48;72.35
19536;HTU21D;9913;51.168;4.124;2023-02-13T11:43:58;10.59;69.55
19536;HTU21D;9913;51.168;4.124;2023-02-13T11:46:29;10.66;71.60
19536;HTU21D;9913;51.168;4.124;2023-02-13T11:49:00;10.81;71.74
19536;HTU21D;9913;51.168;4.124;2023-02-13T11:51:41;10.83;72.30
19536;HTU21D;9913;51.168;4.124;2023-02-13T11:54:23;10.81;71.29
19536;HTU21D;9913;51.168;4.124;2023-02-13T11:56:54;10.81;71.54
19536;HTU21D;9913;51.168;4.124;2023-02-13T11:59:38;10.93;72.67
19536;HTU21D;9913;51.168;4.124;2023-02-13T12:02:16;10.69;71.86
19536;HTU21D;9913;51.168;4.124;2023-02-13T12:04:46;10.75;72.70
19536;HTU21D;9913;51.168;4.124;2023-02-13T12:07:22;10.75;71.10
19536;HTU21D;9913;51.168;4.124;2023-02-13T12:09:54;10.99;72.49
19536;HTU21D;9913;51.168;4.124;2023-02-13T12:12:28;11.07;71.31
19536;HTU21D;9913;51.168;4.124;2023-02-13T12:15:01;11.01;71.90
19536;HTU21D;9913;51.168;4.124;2023-02-13T12:17:35;11.18;72.44
19536;HTU21D;9913;51.168;4.124;2023-02-13T12:20:10;11.03;72.64
19536;HTU21D;9913;51.168;4.124;2023-02-13T12:22:50;11.08;71.10
19536;HTU21D;9913;51.168;4.124;2023-02-13T12:25:35;11.11;72.83
19536;HTU21D;9913;51.168;4.124;2023-02-13T12:28:11;11.37;71.77
19536;HTU21D;9913;51.168;4.124;2023-02-13T12:37:04;11.10;72.34
19536;HTU21D;9913;51.168;4.124;2023-02-13T12:39:40;11.26;71.34
19536;HTU21D;9913;51.168;4.124;2023-02-13T12:42:23;11.38;71.73
19536;HTU21D;9913;51.168;4.124;2023-02-13T12:45:12;11.26;72.22
19536;HTU21D;9913;51.168;4.124;2023-02-13T12:47:56;11.47;73.04
19536;HTU21D;9913;51.168;4.124;2023-02-13T12:50:34;11.66;72.61
19536;HTU21D;9913;51.168;4.124;2023-02-13T12:53:18;11.68;72.75
19536;HTU21D;9913;51.168;4.124;2023-02-13T12:56:17;11.70;72.03
19536;HTU21D;9913;51.168;4.124;2023-02-13T12:58:59;11.86;72.58
19536;HTU21D;9913;51.168;4.124;2023-02-13T13:01:53;11.74;71.77
19536;HTU21D;9913;51.168;4.124;2023-02-13T13:04:38;11.90;72.74
19536;HTU21D;9913;51.168;4.124;2023-02-13T13:07:22;11.83;72.06
19536;HTU21D;9913;51.168;4.124;2023-02-13T13:10:22;11.81;72.07
19536;HTU21D;9913;51.168;4.124;2023-02-13T13:13:01;11.98;72.20
19536;HTU21D;9913;51.168;4.124;2023-02-13T13:15:38;12.14;73.64
19536;HTU21D;9913;51.168;4.124;2023-02-13T13:18:17;12.08;71.39
19536;HTU21D;9913;51.168;4.124;2023-02-13T13:20:59;11.96;72.61
19536;HTU21D;9913;51.168;4.124;2023-02-13T13:23:31;12.02;71.31
19536;HTU21D;9913;51.168;4.124;2023-02-13T13:26:10;12.03;72.87
19536;HTU21D;9913;51.168;4.124;2023-02-13T13:28:43;11.92;72.74
19536;HTU21D;9913;51.168;4.124;2023-02-13T13:31:13;11.98;73.15
19536;HTU21D;9913;51.168;4.124;2023-02-13T13:33:44;12.00;71.94
19536;HTU21D;9913;51.168;4.124;2023-02-13T13:36:20;12.11;72.92
19536;HTU21D;9913;51.168;4.124;2023-02-13T13:38:58;12.08;72.74
19536;HTU21D;9913;51.168;4.124;2023-02-13T13:41:34;12.06;72.62
19536;HTU21D;9913;51.168;4.124;2023-02-13T13:44:22;12.11;72.26
19536;HTU21D;9913;51.168;4.124;2023-02-13T13:46:57;12.21;72.96
19536;HTU21D;9913;51.168;4.124;2023-02-13T13:49:37;12.30;72.59
19536;HTU21D;9913;51.168;4.124;2023-02-13T13:52:18;12.15;71.28
19536;HTU21D;9913;51.168;4.124;2023-02-13T13:54:47;12.08;72.32
19536;HTU21D;9913;51.168;4.124;2023-02-13T13:57:18;12.21;71.78
19536;HTU21D;9913;51.168;4.124;2023-02-13T14:02:47;12.29;72.45
19536;HTU21D;9913;51.168;4.124;2023-02-13T14:05:23;12.11;71.91
19536;HTU21D;9913;51.168;4.124;2023-02-13T14:07:53;12.14;72.64
19536;HTU21D;9913;51.168;4.124;2023-02-13T14:13:37;12.26;72.16
19536;HTU21D;9913;51.168;4.124;2023-02-13T14:16:10;12.27;72.33
19536;HTU21D;9913;51.168;4.124;2023-02-13T14:18:44;12.22;71.81
19536;HTU21D;9913;51.168;4.124;2023-02-13T14:21:21;12.17;72.33
19536;HTU21D;9913;51.168;4.124;2023-02-13T14:23:50;12.11;72.07
19536;HTU21D;9913;51.168;4.124;2023-02-13T14:26:36;12.10;71.98
19536;HTU21D;9913;51.168;4.124;2023-02-13T14:29:32;12.07;72.44
19536;HTU21D;9913;51.168;4.124;2023-02-13T14:32:20;12.21;72.48
19536;HTU21D;9913;51.168;4.124;2023-02-13T14:34:56;12.12;72.57
19536;HTU21D;9913;51.168;4.124;2023-02-13T14:37:34;12.16;72.24
19536;HTU21D;9913;51.168;4.124;2023-02-13T14:43:20;12.14;72.19
19536;HTU21D;9913;51.168;4.124;2023-02-13T14:45:52;12.14;72.15
19536;HTU21D;9913;51.168;4.124;2023-02-13T14:48:32;12.16;72.09
19536;HTU21D;9913;51.168;4.124;2023-02-13T14:51:04;12.11;72.24
19536;HTU21D;9913;51.168;4.124;2023-02-13T14:53:46;12.02;72.77
19536;HTU21D;9913;51.168;4.124;2023-02-13T14:56:18;12.03;72.34
19536;HTU21D;9913;51.168;4.124;2023-02-13T14:58:51;11.94;72.00
19536;HTU21D;9913;51.168;4.124;2023-02-13T15:01:27;11.97;72.16
19536;HTU21D;9913;51.168;4.124;2023-02-13T15:04:03;11.88;71.99
19536;HTU21D;9913;51.168;4.124;2023-02-13T15:06:36;11.87;72.05
19536;HTU21D;9913;51.168;4.124;2023-02-13T15:09:18;11.85;72.12
19536;HTU21D;9913;51.168;4.124;2023-02-13T15:11:48;11.72;72.08
19536;HTU21D;9913;51.168;4.124;2023-02-13T15:14:20;11.67;71.98
19536;HTU21D;9913;51.168;4.124;2023-02-13T15:16:51;11.62;71.70
19536;HTU21D;9913;51.168;4.124;2023-02-13T15:19:23;11.55;71.91
19536;HTU21D;9913;51.168;4.124;2023-02-13T15:21:56;11.56;72.00
19536;HTU21D;9913;51.168;4.124;2023-02-13T15:24:26;11.44;71.29
19536;HTU21D;9913;51.168;4.124;2023-02-13T15:26:59;11.45;71.72
19536;HTU21D;9913;51.168;4.124;2023-02-13T15:29:29;11.40;71.71
19536;HTU21D;9913;51.168;4.124;2023-02-13T15:32:18;11.33;72.33
19536;HTU21D;9913;51.168;4.124;2023-02-13T15:34:48;11.36;71.96
19536;HTU21D;9913;51.168;4.124;2023-02-13T15:37:21;11.26;71.77
19536;HTU21D;9913;51.168;4.124;2023-02-13T15:39:50;11.17;71.69
19536;HTU21D;9913;51.168;4.124;2023-02-13T15:42:18;11.20;71.70
19536;HTU21D;9913;51.168;4.124;2023-02-13T15:44:48;11.16;71.80
19536;HTU21D;9913;51.168;4.124;2023-02-13T15:47:22;11.22;71.82
19536;HTU21D;9913;51.168;4.124;2023-02-13T15:49:55;11.30;71.99
19536;HTU21D;9913;51.168;4.124;2023-02-13T15:52:29;11.36;71.83
19536;HTU21D;9913;51.168;4.124;2023-02-13T15:54:59;11.58;71.87
19536;HTU21D;9913;51.168;4.124;2023-02-13T15:57:28;11.64;72.24
19536;HTU21D;9913;51.168;4.124;2023-02-13T15:59:57;11.39;71.49
19536;HTU21D;9913;51.168;4.124;2023-02-13T16:02:41;11.01;71.49
19536;HTU21D;9913;51.168;4.124;2023-02-13T16:05:14;10.84;71.48
19536;HTU21D;9913;51.168;4.124;2023-02-13T16:07:59;10.70;71.38
19536;HTU21D;9913;51.168;4.124;2023-02-13T16:10:29;10.67;71.56
19536;HTU21D;9913;51.168;4.124;2023-02-13T16:13:00;10.51;71.15
19536;HTU21D;9913;51.168;4.124;2023-02-13T16:15:31;10.33;70.76
19536;HTU21D;9913;51.168;4.124;2023-02-13T16:18:02;10.23;70.90
19536;HTU21D;9913;51.168;4.124;2023-02-13T16:20:34;10.10;70.75
19536;HTU21D;9913;51.168;4.124;2023-02-13T16:23:07;10.00;70.75
19536;HTU21D;9913;51.168;4.124;2023-02-13T16:25:40;10.07;71.03
19536;HTU21D;9913;51.168;4.124;2023-02-13T16:28:16;10.04;70.55
19536;HTU21D;9913;51.168;4.124;2023-02-13T16:30:50;9.90;70.07
19536;HTU21D;9913;51.168;4.124;2023-02-13T16:33:27;9.74;70.10
19536;HTU21D;9913;51.168;4.124;2023-02-13T16:35:58;9.61;70.27
19536;HTU21D;9913;51.168;4.124;2023-02-13T16:38:30;9.52;69.94
19536;HTU21D;9913;51.168;4.124;2023-02-13T16:41:01;9.44;69.86
19536;HTU21D;9913;51.168;4.124;2023-02-13T16:43:38;9.30;69.95
19536;HTU21D;9913;51.168;4.124;2023-02-13T16:46:30;9.16;69.63
19536;HTU21D;9913;51.168;4.124;2023-02-13T16:49:03;9.04;69.39